DIDMG EDDK-EDDV
Flight info
| Callsign | DIDMG |
|---|---|
| Flight time | 0h 39m |
| Altitude | 23000 |
| Route | PODIP7E PODIP Y867 WRB WRB1X |
| Aircraft | P180/L-SBDFGM3RWXY/LB1 |
Departure
| Time | 2026-04-22 18:56 |
|---|---|
| Airport | Cologne Bonn Airport (EDDK) |
Arrival
| Time | 2026-04-22 19:36 |
|---|---|
| Airport | Hannover Airport (EDDV) |
| Time | Latitude | Longitude | Altitude | Speed | Heading |
|---|---|---|---|---|---|
| 2026-04-22 18:29 | 50.87256 | 7.12435 | 226 ft | 0 kts | 92° |
| 2026-04-22 18:31 | 50.87274 | 7.12467 | 226 ft | 0 kts | 92° |
| 2026-04-22 18:46 | 50.87265 | 7.12458 | 226 ft | 4 kts | 281° |
| 2026-04-22 18:46 | 50.87279 | 7.12434 | 226 ft | 0 kts | 317° |
| 2026-04-22 18:47 | 50.87284 | 7.12425 | 226 ft | 3 kts | 303° |
| 2026-04-22 18:47 | 50.87266 | 7.12376 | 226 ft | 5 kts | 229° |
| 2026-04-22 18:47 | 50.87251 | 7.12342 | 226 ft | 4 kts | 269° |
| 2026-04-22 18:47 | 50.87247 | 7.12285 | 226 ft | 7 kts | 205° |
| 2026-04-22 18:48 | 50.87188 | 7.12254 | 226 ft | 11 kts | 197° |
| 2026-04-22 18:48 | 50.87141 | 7.12218 | 227 ft | 0 kts | 226° |
| 2026-04-22 18:51 | 50.87140 | 7.12216 | 227 ft | 2 kts | 226° |
| 2026-04-22 18:52 | 50.87109 | 7.12164 | 227 ft | 11 kts | 229° |
| 2026-04-22 18:52 | 50.87048 | 7.12140 | 229 ft | 0 kts | 137° |
| 2026-04-22 18:54 | 50.87046 | 7.12143 | 229 ft | 0 kts | 137° |
| 2026-04-22 18:56 | 50.86780 | 7.12531 | 231 ft | 120 kts | 137° |
| 2026-04-22 18:56 | 50.85997 | 7.13650 | 749 ft | 170 kts | 134° |
| 2026-04-22 18:56 | 50.85116 | 7.15057 | 1705 ft | 180 kts | 127° |
| 2026-04-22 18:56 | 50.84379 | 7.16581 | 2968 ft | 172 kts | 123° |
| 2026-04-22 18:57 | 50.83626 | 7.18068 | 4081 ft | 175 kts | 128° |
| 2026-04-22 18:57 | 50.82833 | 7.19556 | 5181 ft | 179 kts | 128° |
| 2026-04-22 18:57 | 50.82053 | 7.21116 | 6182 ft | 183 kts | 116° |
| 2026-04-22 18:57 | 50.81904 | 7.23100 | 7103 ft | 185 kts | 82° |
| 2026-04-22 18:58 | 50.82267 | 7.25061 | 7976 ft | 187 kts | 68° |
| 2026-04-22 18:58 | 50.82719 | 7.26967 | 8833 ft | 188 kts | 69° |
| 2026-04-22 18:58 | 50.83146 | 7.28939 | 9675 ft | 190 kts | 70° |
| 2026-04-22 18:58 | 50.83566 | 7.30926 | 10479 ft | 191 kts | 70° |
| 2026-04-22 18:59 | 50.83994 | 7.32948 | 11112 ft | 198 kts | 70° |
| 2026-04-22 18:59 | 50.84442 | 7.35053 | 11572 ft | 207 kts | 70° |
| 2026-04-22 18:59 | 50.84907 | 7.37247 | 11949 ft | 213 kts | 70° |
| 2026-04-22 18:59 | 50.85388 | 7.39515 | 12210 ft | 220 kts | 70° |
| 2026-04-22 19:00 | 50.85876 | 7.41827 | 12473 ft | 223 kts | 70° |
| 2026-04-22 19:00 | 50.86362 | 7.44136 | 12734 ft | 224 kts | 70° |
| 2026-04-22 19:00 | 50.86859 | 7.46479 | 13011 ft | 224 kts | 69° |
| 2026-04-22 19:00 | 50.87346 | 7.48790 | 13407 ft | 218 kts | 69° |
| 2026-04-22 19:01 | 50.87801 | 7.50948 | 13750 ft | 197 kts | 69° |
| 2026-04-22 19:01 | 50.88221 | 7.52956 | 14006 ft | 187 kts | 69° |
| 2026-04-22 19:01 | 50.88627 | 7.54886 | 14268 ft | 182 kts | 69° |
| 2026-04-22 19:01 | 50.89033 | 7.56801 | 14344 ft | 187 kts | 69° |
| 2026-04-22 19:02 | 50.89449 | 7.58786 | 14343 ft | 192 kts | 69° |
| 2026-04-22 19:02 | 50.89869 | 7.60799 | 14343 ft | 193 kts | 69° |
| 2026-04-22 19:02 | 50.90292 | 7.62819 | 14343 ft | 194 kts | 69° |
| 2026-04-22 19:02 | 50.90713 | 7.64824 | 14343 ft | 196 kts | 69° |
| 2026-04-22 19:03 | 50.91173 | 7.67018 | 14344 ft | 224 kts | 69° |
| 2026-04-22 19:03 | 50.91688 | 7.69472 | 14344 ft | 245 kts | 70° |
| 2026-04-22 19:03 | 50.92237 | 7.72119 | 14349 ft | 260 kts | 70° |
| 2026-04-22 19:03 | 50.92813 | 7.74899 | 14357 ft | 270 kts | 70° |
| 2026-04-22 19:04 | 50.93410 | 7.77771 | 14358 ft | 278 kts | 70° |
| 2026-04-22 19:04 | 50.94020 | 7.80703 | 14356 ft | 283 kts | 70° |
| 2026-04-22 19:04 | 50.94889 | 7.83491 | 14349 ft | 284 kts | 53° |
| 2026-04-22 19:04 | 50.96134 | 7.85940 | 14351 ft | 286 kts | 51° |
| 2026-04-22 19:05 | 50.97271 | 7.88552 | 14353 ft | 288 kts | 56° |
| 2026-04-22 19:05 | 50.98360 | 7.91224 | 14354 ft | 289 kts | 55° |
| 2026-04-22 19:05 | 50.99278 | 7.94045 | 14526 ft | 285 kts | 68° |
| 2026-04-22 19:05 | 50.99887 | 7.96892 | 15350 ft | 259 kts | 67° |
| 2026-04-22 19:06 | 51.00646 | 7.99423 | 15833 ft | 253 kts | 58° |
| 2026-04-22 19:06 | 51.01596 | 8.01800 | 16090 ft | 256 kts | 56° |
| 2026-04-22 19:06 | 51.02510 | 8.04170 | 16771 ft | 241 kts | 58° |
| 2026-04-22 19:07 | 51.04139 | 8.08668 | 17821 ft | 237 kts | 58° |
| 2026-04-22 19:07 | 51.04973 | 8.10935 | 18223 ft | 238 kts | 58° |
| 2026-04-22 19:07 | 51.05811 | 8.13221 | 18594 ft | 240 kts | 58° |
| 2026-04-22 19:07 | 51.06651 | 8.15515 | 18888 ft | 243 kts | 58° |
| 2026-04-22 19:08 | 51.07502 | 8.17845 | 19228 ft | 244 kts | 58° |
| 2026-04-22 19:08 | 51.08359 | 8.20190 | 19560 ft | 245 kts | 58° |
| 2026-04-22 19:08 | 51.09219 | 8.22549 | 19881 ft | 247 kts | 59° |
| 2026-04-22 19:08 | 51.10086 | 8.24925 | 20206 ft | 248 kts | 59° |
| 2026-04-22 19:09 | 51.10956 | 8.27311 | 20527 ft | 249 kts | 59° |
| 2026-04-22 19:09 | 51.11827 | 8.29705 | 20858 ft | 251 kts | 59° |
| 2026-04-22 19:09 | 51.12407 | 8.31299 | 21061 ft | 252 kts | 59° |
| 2026-04-22 19:09 | 51.13569 | 8.34502 | 21491 ft | 253 kts | 59° |
| 2026-04-22 19:10 | 51.14455 | 8.36939 | 21835 ft | 255 kts | 59° |
| 2026-04-22 19:10 | 51.15344 | 8.39390 | 22181 ft | 256 kts | 60° |
| 2026-04-22 19:10 | 51.16235 | 8.41857 | 22526 ft | 257 kts | 60° |
| 2026-04-22 19:10 | 51.17134 | 8.44335 | 22869 ft | 259 kts | 60° |
| 2026-04-22 19:11 | 51.18036 | 8.46828 | 23221 ft | 260 kts | 60° |
| 2026-04-22 19:11 | 51.18948 | 8.49359 | 23354 ft | 269 kts | 60° |
| 2026-04-22 19:11 | 51.19902 | 8.52003 | 23359 ft | 280 kts | 60° |
| 2026-04-22 19:11 | 51.21084 | 8.54537 | 23361 ft | 291 kts | 50° |
| 2026-04-22 19:12 | 51.22420 | 8.56990 | 23367 ft | 301 kts | 50° |
| 2026-04-22 19:12 | 51.23787 | 8.59584 | 23370 ft | 309 kts | 51° |
| 2026-04-22 19:12 | 51.25178 | 8.62267 | 23363 ft | 316 kts | 51° |
| 2026-04-22 19:12 | 51.26597 | 8.64974 | 23361 ft | 321 kts | 51° |
| 2026-04-22 19:13 | 51.28044 | 8.67719 | 23362 ft | 324 kts | 51° |
| 2026-04-22 19:13 | 51.29498 | 8.70499 | 23365 ft | 328 kts | 51° |
| 2026-04-22 19:13 | 51.30965 | 8.73312 | 23361 ft | 330 kts | 51° |
| 2026-04-22 19:13 | 51.32444 | 8.76138 | 23362 ft | 332 kts | 51° |
| 2026-04-22 19:14 | 51.33927 | 8.78978 | 23363 ft | 334 kts | 51° |
| 2026-04-22 19:14 | 51.35401 | 8.81810 | 23359 ft | 335 kts | 51° |
| 2026-04-22 19:14 | 51.36891 | 8.84675 | 23358 ft | 336 kts | 51° |
| 2026-04-22 19:14 | 51.38391 | 8.87549 | 23360 ft | 336 kts | 51° |
| 2026-04-22 19:15 | 51.39402 | 8.89496 | 23356 ft | 337 kts | 51° |
| 2026-04-22 19:15 | 51.41382 | 8.93327 | 23356 ft | 337 kts | 51° |
| 2026-04-22 19:15 | 51.42890 | 8.96223 | 23355 ft | 337 kts | 51° |
| 2026-04-22 19:15 | 51.44395 | 8.99129 | 23357 ft | 338 kts | 51° |
| 2026-04-22 19:16 | 51.45890 | 9.02033 | 23355 ft | 338 kts | 51° |
| 2026-04-22 19:16 | 51.47391 | 9.04934 | 23348 ft | 338 kts | 51° |
| 2026-04-22 19:16 | 51.48896 | 9.07838 | 23347 ft | 338 kts | 51° |
| 2026-04-22 19:16 | 51.50415 | 9.10692 | 23344 ft | 335 kts | 48° |
| 2026-04-22 19:17 | 51.52311 | 9.12852 | 23341 ft | 336 kts | 31° |
| 2026-04-22 19:17 | 51.54329 | 9.14733 | 23341 ft | 334 kts | 35° |
| 2026-04-22 19:17 | 51.56226 | 9.16870 | 23345 ft | 333 kts | 37° |
| 2026-04-22 19:17 | 51.58125 | 9.18910 | 23344 ft | 332 kts | 34° |
| 2026-04-22 19:18 | 51.60121 | 9.20807 | 23348 ft | 332 kts | 32° |
| 2026-04-22 19:18 | 51.62090 | 9.22738 | 23348 ft | 331 kts | 34° |
| 2026-04-22 19:18 | 51.64068 | 9.24681 | 23121 ft | 335 kts | 33° |
| 2026-04-22 19:18 | 51.66070 | 9.26581 | 22630 ft | 332 kts | 32° |
| 2026-04-22 19:19 | 51.68054 | 9.28459 | 22132 ft | 329 kts | 32° |
| 2026-04-22 19:19 | 51.70019 | 9.30333 | 21660 ft | 327 kts | 32° |
| 2026-04-22 19:19 | 51.71970 | 9.32194 | 21192 ft | 325 kts | 32° |
| 2026-04-22 19:19 | 51.73252 | 9.33426 | 20891 ft | 323 kts | 32° |
| 2026-04-22 19:20 | 51.75167 | 9.35288 | 20430 ft | 316 kts | 32° |
| 2026-04-22 19:20 | 51.77021 | 9.37120 | 19924 ft | 310 kts | 32° |
| 2026-04-22 19:20 | 51.79434 | 9.39513 | 19246 ft | 304 kts | 32° |
| 2026-04-22 19:20 | 51.80642 | 9.40720 | 18903 ft | 301 kts | 32° |
| 2026-04-22 19:21 | 51.82411 | 9.42504 | 18371 ft | 298 kts | 32° |
| 2026-04-22 19:21 | 51.84161 | 9.44280 | 17800 ft | 295 kts | 32° |
| 2026-04-22 19:21 | 51.85888 | 9.46043 | 17240 ft | 292 kts | 32° |
| 2026-04-22 19:21 | 51.87577 | 9.47780 | 16699 ft | 290 kts | 32° |
| 2026-04-22 19:22 | 51.89270 | 9.49527 | 16160 ft | 288 kts | 32° |
| 2026-04-22 19:22 | 51.90950 | 9.51267 | 15635 ft | 286 kts | 33° |
| 2026-04-22 19:22 | 51.92617 | 9.53011 | 15113 ft | 284 kts | 33° |
| 2026-04-22 19:22 | 51.94267 | 9.54740 | 14607 ft | 282 kts | 32° |
| 2026-04-22 19:23 | 51.95908 | 9.56472 | 14094 ft | 280 kts | 33° |
| 2026-04-22 19:23 | 51.97537 | 9.58197 | 13530 ft | 279 kts | 32° |
| 2026-04-22 19:23 | 51.99153 | 9.59924 | 12969 ft | 277 kts | 33° |
| 2026-04-22 19:23 | 52.00757 | 9.61635 | 12427 ft | 275 kts | 32° |
| 2026-04-22 19:24 | 52.02359 | 9.63324 | 11889 ft | 274 kts | 32° |
| 2026-04-22 19:24 | 52.03944 | 9.64960 | 11370 ft | 273 kts | 32° |
| 2026-04-22 19:24 | 52.05528 | 9.66638 | 10850 ft | 272 kts | 32° |
| 2026-04-22 19:24 | 52.07113 | 9.68318 | 10341 ft | 271 kts | 32° |
| 2026-04-22 19:25 | 52.08687 | 9.69995 | 9786 ft | 270 kts | 32° |
| 2026-04-22 19:25 | 52.10234 | 9.71654 | 9481 ft | 261 kts | 32° |
| 2026-04-22 19:25 | 52.11724 | 9.73256 | 9264 ft | 253 kts | 32° |
| 2026-04-22 19:25 | 52.13177 | 9.74802 | 9047 ft | 247 kts | 32° |
| 2026-04-22 19:26 | 52.14600 | 9.76319 | 8845 ft | 243 kts | 32° |
| 2026-04-22 19:26 | 52.15999 | 9.77815 | 8735 ft | 237 kts | 32° |
| 2026-04-22 19:26 | 52.17339 | 9.79253 | 8719 ft | 232 kts | 32° |
| 2026-04-22 19:26 | 52.18717 | 9.80721 | 8722 ft | 235 kts | 34° |
| 2026-04-22 19:27 | 52.19861 | 9.82654 | 8694 ft | 240 kts | 49° |
| 2026-04-22 19:27 | 52.20968 | 9.84741 | 8490 ft | 247 kts | 43° |
| 2026-04-22 19:27 | 52.22300 | 9.86572 | 8176 ft | 254 kts | 36° |
| 2026-04-22 19:27 | 52.23725 | 9.88269 | 7848 ft | 258 kts | 35° |
| 2026-04-22 19:28 | 52.25124 | 9.90068 | 7512 ft | 254 kts | 38° |
| 2026-04-22 19:28 | 52.26493 | 9.91876 | 7178 ft | 252 kts | 36° |
| 2026-04-22 19:28 | 52.27874 | 9.93622 | 6835 ft | 250 kts | 36° |
| 2026-04-22 19:28 | 52.29237 | 9.95380 | 6493 ft | 249 kts | 37° |
| 2026-04-22 19:29 | 52.30592 | 9.97140 | 6162 ft | 247 kts | 36° |
| 2026-04-22 19:29 | 52.31943 | 9.98870 | 5830 ft | 247 kts | 36° |
| 2026-04-22 19:29 | 52.33292 | 10.00619 | 5507 ft | 246 kts | 37° |
| 2026-04-22 19:29 | 52.34616 | 10.02330 | 5183 ft | 246 kts | 36° |
| 2026-04-22 19:30 | 52.35523 | 10.03497 | 4953 ft | 246 kts | 36° |
| 2026-04-22 19:30 | 52.37490 | 10.05156 | 4503 ft | 241 kts | 6° |
| 2026-04-22 19:30 | 52.39156 | 10.05172 | 4173 ft | 239 kts | 359° |
| 2026-04-22 19:30 | 52.40851 | 10.05342 | 3600 ft | 247 kts | 5° |
| 2026-04-22 19:31 | 52.42559 | 10.05491 | 3219 ft | 243 kts | 353° |
| 2026-04-22 19:31 | 52.44000 | 10.04337 | 3005 ft | 228 kts | 313° |
| 2026-04-22 19:31 | 52.44536 | 10.02029 | 2996 ft | 214 kts | 277° |
| 2026-04-22 19:31 | 52.44607 | 9.99652 | 2995 ft | 206 kts | 275° |
| 2026-04-22 19:32 | 52.44690 | 9.97307 | 2996 ft | 205 kts | 275° |
| 2026-04-22 19:32 | 52.44749 | 9.94973 | 2999 ft | 205 kts | 274° |
| 2026-04-22 19:32 | 52.44805 | 9.92599 | 2804 ft | 214 kts | 274° |
| 2026-04-22 19:32 | 52.44880 | 9.90119 | 2510 ft | 216 kts | 275° |
| 2026-04-22 19:33 | 52.44954 | 9.87726 | 2220 ft | 205 kts | 274° |
| 2026-04-22 19:33 | 52.44997 | 9.85483 | 1946 ft | 188 kts | 274° |
| 2026-04-22 19:33 | 52.45043 | 9.83568 | 1709 ft | 141 kts | 277° |
| 2026-04-22 19:33 | 52.45096 | 9.82131 | 1534 ft | 121 kts | 278° |
| 2026-04-22 19:34 | 52.45130 | 9.80793 | 1375 ft | 117 kts | 277° |
| 2026-04-22 19:34 | 52.45165 | 9.79467 | 1218 ft | 116 kts | 278° |
| 2026-04-22 19:34 | 52.45195 | 9.78153 | 1064 ft | 115 kts | 276° |
| 2026-04-22 19:34 | 52.45226 | 9.76828 | 914 ft | 118 kts | 277° |
| 2026-04-22 19:35 | 52.45281 | 9.75486 | 756 ft | 117 kts | 276° |
| 2026-04-22 19:35 | 52.45320 | 9.74152 | 583 ft | 117 kts | 274° |
| 2026-04-22 19:35 | 52.45352 | 9.72830 | 438 ft | 116 kts | 274° |
| 2026-04-22 19:35 | 52.45383 | 9.71499 | 286 ft | 116 kts | 274° |
| 2026-04-22 19:36 | 52.45427 | 9.70315 | 180 ft | 88 kts | 274° |
| 2026-04-22 19:36 | 52.45446 | 9.69575 | 181 ft | 39 kts | 272° |
| 2026-04-22 19:36 | 52.45457 | 9.69240 | 181 ft | 25 kts | 272° |
| 2026-04-22 19:36 | 52.45522 | 9.69135 | 183 ft | 12 kts | 4° |
| 2026-04-22 19:37 | 52.45565 | 9.69138 | 184 ft | 0 kts | 1° |
| 2026-04-22 19:37 | 52.45581 | 9.69139 | 185 ft | 6 kts | 2° |
| 2026-04-22 19:37 | 52.45632 | 9.69143 | 185 ft | 8 kts | 2° |
| 2026-04-22 19:38 | 52.45683 | 9.69147 | 185 ft | 6 kts | 2° |
| 2026-04-22 19:38 | 52.45720 | 9.69148 | 185 ft | 5 kts | 359° |
| 2026-04-22 19:38 | 52.45753 | 9.69132 | 192 ft | 5 kts | 333° |
| 2026-04-22 19:38 | 52.45779 | 9.69107 | 185 ft | 4 kts | 327° |
| 2026-04-22 19:39 | 52.45803 | 9.69037 | 191 ft | 11 kts | 271° |
| 2026-04-22 19:39 | 52.45784 | 9.68959 | 185 ft | 5 kts | 239° |
| 2026-04-22 19:39 | 52.45769 | 9.68908 | 191 ft | 6 kts | 218° |
| 2026-04-22 19:39 | 52.45727 | 9.68902 | 185 ft | 7 kts | 175° |
| 2026-04-22 19:40 | 52.45723 | 9.68879 | 195 ft | 2 kts | 311° |
| 2026-04-22 19:40 | 52.45732 | 9.68863 | 185 ft | 0 kts | 308° |